createdAt,value
2017-07-03T00:00:31.126Z,3.00
2017-07-03T00:03:03.051Z,3.03
2017-07-03T00:05:31.575Z,3.63
2017-07-03T00:08:00.099Z,2.43
2017-07-03T00:10:28.681Z,2.97
2017-07-03T00:12:59.655Z,2.63
2017-07-03T00:15:28.345Z,2.97
2017-07-03T00:17:56.858Z,3.27
2017-07-03T00:20:25.512Z,2.40
2017-07-03T00:22:53.993Z,3.10
2017-07-03T00:25:22.492Z,3.23
2017-07-03T00:27:50.980Z,2.80
2017-07-03T00:30:19.476Z,2.63
2017-07-03T00:32:48.061Z,2.50
2017-07-03T00:35:18.464Z,3.00
2017-07-03T00:37:47.046Z,2.43
2017-07-03T00:40:24.116Z,2.63
2017-07-03T00:42:52.593Z,2.27
2017-07-03T00:45:21.138Z,2.47
2017-07-03T00:47:52.633Z,2.90
2017-07-03T00:50:24.351Z,2.43
2017-07-03T00:53:08.560Z,2.80
2017-07-03T00:58:18.755Z,3.07
2017-07-03T01:00:47.318Z,3.40
2017-07-03T01:03:18.795Z,3.37
2017-07-03T01:05:47.285Z,3.70
2017-07-03T01:08:23.667Z,2.90
2017-07-03T01:10:52.717Z,3.33
2017-07-03T01:13:21.227Z,3.00
2017-07-03T01:15:49.997Z,3.43
2017-07-03T01:18:20.446Z,2.63
2017-07-03T01:20:48.911Z,3.30
2017-07-03T01:23:17.450Z,3.30
2017-07-03T01:25:46.149Z,3.67
2017-07-03T01:28:14.866Z,3.40
2017-07-03T01:30:43.374Z,2.97
2017-07-03T01:33:11.836Z,2.70
2017-07-03T01:35:40.314Z,3.63
2017-07-03T01:38:09.973Z,3.40
2017-07-03T01:40:38.544Z,3.27
2017-07-03T01:43:07.017Z,2.90
2017-07-03T01:45:35.571Z,3.47
2017-07-03T01:48:04.053Z,3.13
2017-07-03T01:50:32.595Z,3.50
2017-07-03T01:53:01.050Z,3.40
2017-07-03T01:55:29.630Z,3.13
2017-07-03T01:57:58.102Z,2.50
2017-07-03T02:00:27.124Z,3.00
2017-07-03T02:02:55.656Z,2.90
2017-07-03T02:05:24.153Z,3.20
2017-07-03T02:07:52.662Z,3.10
2017-07-03T02:10:21.234Z,3.33
2017-07-03T02:12:49.868Z,3.40
2017-07-03T02:15:18.405Z,3.93
2017-07-03T02:17:46.891Z,3.80
2017-07-03T02:20:15.495Z,2.77
2017-07-03T02:22:44.041Z,3.93
2017-07-03T02:25:23.840Z,3.57
2017-07-03T02:27:52.602Z,3.70
2017-07-03T02:30:21.179Z,3.73
2017-07-03T02:32:49.659Z,3.50
2017-07-03T02:35:18.174Z,3.10
2017-07-03T02:37:46.709Z,3.47
2017-07-03T02:40:15.535Z,3.57
2017-07-03T02:42:44.035Z,3.70
2017-07-03T02:45:12.508Z,3.63
2017-07-03T02:47:42.545Z,3.50
2017-07-03T02:50:11.121Z,3.47
2017-07-03T02:52:39.646Z,3.70
2017-07-03T02:55:08.186Z,3.23
2017-07-03T02:57:36.703Z,3.90
2017-07-03T03:00:04.842Z,3.87
2017-07-03T03:02:33.324Z,3.73
2017-07-03T03:05:01.647Z,3.90
2017-07-03T03:07:32.645Z,3.50
2017-07-03T03:10:01.122Z,3.83
2017-07-03T03:12:29.926Z,3.27
2017-07-03T03:14:58.418Z,3.00
2017-07-03T03:17:26.693Z,3.30
2017-07-03T03:19:55.259Z,3.43
2017-07-03T03:22:23.804Z,3.50
2017-07-03T03:24:52.289Z,3.37
2017-07-03T03:27:20.809Z,3.33
2017-07-03T03:29:51.388Z,3.50
2017-07-03T03:32:19.866Z,3.10
2017-07-03T03:34:48.420Z,3.00
2017-07-03T03:37:31.509Z,3.00
2017-07-03T03:40:00.008Z,3.60
2017-07-03T03:42:28.538Z,3.40
2017-07-03T03:44:57.007Z,3.03
2017-07-03T03:47:36.851Z,3.40
2017-07-03T03:50:05.318Z,3.70
2017-07-03T03:52:36.494Z,3.40
2017-07-03T03:55:08.705Z,2.70
2017-07-03T03:57:37.187Z,3.27
2017-07-03T04:00:04.975Z,3.70
2017-07-03T04:02:33.477Z,3.73
2017-07-03T04:05:01.957Z,3.57
2017-07-03T04:07:30.443Z,3.50
2017-07-03T04:09:59.806Z,3.90
2017-07-03T04:12:28.536Z,3.77
2017-07-03T04:14:57.021Z,3.10
2017-07-03T04:17:25.582Z,3.67
2017-07-03T04:19:54.166Z,3.57
2017-07-03T04:22:23.467Z,4.07
2017-07-03T04:24:55.472Z,4.03
2017-07-03T04:27:23.957Z,3.70
2017-07-03T04:29:52.508Z,3.37
2017-07-03T04:32:21.066Z,3.97
2017-07-03T04:34:49.550Z,3.20
2017-07-03T04:37:18.080Z,4.50
2017-07-03T04:39:46.598Z,3.80
2017-07-03T04:42:15.082Z,4.33
2017-07-03T04:44:43.672Z,3.40
2017-07-03T04:47:12.451Z,3.07
2017-07-03T04:49:41.034Z,3.43
2017-07-03T04:52:09.541Z,3.77
2017-07-03T04:54:38.326Z,3.67
2017-07-03T04:57:06.799Z,3.67
2017-07-03T04:59:35.051Z,3.40
2017-07-03T05:02:03.628Z,3.63
2017-07-03T05:04:31.853Z,3.00
2017-07-03T05:07:00.327Z,2.60
2017-07-03T05:09:28.826Z,3.47
2017-07-03T05:11:57.295Z,2.67
2017-07-03T05:14:25.806Z,3.00
2017-07-03T05:16:54.226Z,2.13
2017-07-03T05:19:22.712Z,1.93
2017-07-03T05:21:51.159Z,2.30
2017-07-03T05:24:19.614Z,2.07
2017-07-03T05:26:48.158Z,2.30
2017-07-03T05:29:16.611Z,2.03
2017-07-03T05:31:45.140Z,2.40
2017-07-03T05:34:13.596Z,2.73
2017-07-03T05:36:43.934Z,1.97
2017-07-03T05:39:12.478Z,1.53
2017-07-03T05:41:41.324Z,1.53
2017-07-03T05:44:15.338Z,1.60
2017-07-03T05:46:43.861Z,1.67
2017-07-03T05:49:13.438Z,1.97
2017-07-03T05:51:42.048Z,1.70
2017-07-03T05:54:20.911Z,0.90
2017-07-03T05:57:12.507Z,1.63
2017-07-03T05:59:40.845Z,1.20
2017-07-03T06:02:09.603Z,1.33
2017-07-03T06:04:38.139Z,1.73
2017-07-03T06:07:06.999Z,1.37
2017-07-03T06:09:35.488Z,1.20
2017-07-03T06:12:03.971Z,1.10
2017-07-03T06:14:32.482Z,1.67
2017-07-03T06:17:00.975Z,1.23
2017-07-03T06:19:29.583Z,1.30
2017-07-03T06:21:58.126Z,1.10
2017-07-03T06:24:34.195Z,1.10
2017-07-03T06:27:02.676Z,1.10
2017-07-03T06:29:31.151Z,0.97
2017-07-03T06:31:59.672Z,1.20
2017-07-03T06:34:32.084Z,0.90
2017-07-03T06:37:00.603Z,0.77
2017-07-03T06:39:29.157Z,0.97
2017-07-03T06:41:57.673Z,1.00
2017-07-03T06:44:26.202Z,1.03
2017-07-03T06:46:56.366Z,0.93
2017-07-03T06:49:24.846Z,1.27
2017-07-03T06:51:53.399Z,0.87
2017-07-03T06:54:21.957Z,0.70
2017-07-03T06:56:50.495Z,0.80
2017-07-03T06:59:19.029Z,0.70
2017-07-03T07:01:47.567Z,0.60
2017-07-03T07:04:16.043Z,0.60
2017-07-03T07:06:44.502Z,0.90
2017-07-03T07:09:13.074Z,0.90
2017-07-03T07:11:41.602Z,1.00
2017-07-03T07:14:10.146Z,0.70
2017-07-03T07:16:38.922Z,0.70
2017-07-03T07:19:07.478Z,0.60
2017-07-03T07:21:35.963Z,1.00
2017-07-03T07:24:43.146Z,0.73
2017-07-03T07:27:11.641Z,0.60
2017-07-03T07:29:40.145Z,0.60
2017-07-03T07:32:08.660Z,0.50
2017-07-03T07:34:37.205Z,0.60
2017-07-03T07:37:05.723Z,0.90
2017-07-03T07:39:34.252Z,0.60
2017-07-03T07:42:02.768Z,0.63
2017-07-03T07:44:31.280Z,0.50
2017-07-03T07:46:59.794Z,0.60
2017-07-03T07:49:28.299Z,0.73
2017-07-03T07:51:56.776Z,0.60
2017-07-03T07:54:25.393Z,0.60
2017-07-03T07:56:53.907Z,0.60
2017-07-03T07:59:22.574Z,0.70
2017-07-03T08:01:51.412Z,0.77
2017-07-03T08:04:19.917Z,0.60
2017-07-03T08:06:48.403Z,0.73
2017-07-03T08:09:16.912Z,0.60
2017-07-03T08:11:45.412Z,0.50
2017-07-03T08:14:13.870Z,0.50
2017-07-03T08:16:46.082Z,0.80
2017-07-03T08:19:14.651Z,0.73
2017-07-03T08:21:43.112Z,0.80
2017-07-03T08:24:11.645Z,0.80
2017-07-03T08:26:43.012Z,0.57
2017-07-03T08:29:11.523Z,0.80
2017-07-03T08:31:40.088Z,0.43
2017-07-03T08:34:08.597Z,0.60
2017-07-03T08:36:37.190Z,0.50
2017-07-03T08:39:05.462Z,0.50
2017-07-03T08:41:34.639Z,0.60
2017-07-03T08:44:03.372Z,0.50
2017-07-03T08:46:31.874Z,0.73
2017-07-03T08:49:00.053Z,0.67
2017-07-03T08:51:28.551Z,0.60
2017-07-03T08:53:57.108Z,0.50
2017-07-03T08:56:25.599Z,0.60
2017-07-03T08:58:55.154Z,0.50
2017-07-03T09:01:23.737Z,0.60
2017-07-03T09:03:52.246Z,0.70
2017-07-03T09:06:21.539Z,0.50
2017-07-03T09:08:50.905Z,0.50
2017-07-03T09:11:19.431Z,0.57
2017-07-03T09:13:47.956Z,0.57
2017-07-03T09:16:16.465Z,0.50
2017-07-03T09:18:45.102Z,0.60
2017-07-03T09:21:13.608Z,0.50
2017-07-03T09:23:42.157Z,0.60
2017-07-03T09:26:10.679Z,0.83
2017-07-03T09:28:39.145Z,0.93
2017-07-03T09:31:07.704Z,0.53
2017-07-03T09:33:36.185Z,0.67
2017-07-03T09:36:04.686Z,0.60
2017-07-03T09:38:33.329Z,0.60
2017-07-03T09:41:01.797Z,0.80
2017-07-03T09:43:31.147Z,0.70
2017-07-03T09:45:59.703Z,0.57
2017-07-03T09:48:28.215Z,0.60
2017-07-03T09:50:57.470Z,0.60
2017-07-03T09:53:25.999Z,0.60
2017-07-03T09:55:55.233Z,0.63
2017-07-03T09:58:23.764Z,1.00
2017-07-03T10:00:52.324Z,1.67
2017-07-03T10:03:20.597Z,1.10
2017-07-03T10:05:49.082Z,0.80
2017-07-03T10:08:17.622Z,1.40
2017-07-03T10:10:46.161Z,1.33
2017-07-03T10:13:17.603Z,0.90
2017-07-03T10:15:46.847Z,0.80
2017-07-03T10:18:15.355Z,0.83
2017-07-03T10:20:43.846Z,0.60
2017-07-03T10:23:12.394Z,0.77
2017-07-03T10:25:40.990Z,0.60
2017-07-03T10:28:10.344Z,0.70
2017-07-03T10:30:40.135Z,0.80
2017-07-03T10:33:08.606Z,0.57
2017-07-03T10:35:37.102Z,0.50
2017-07-03T10:38:05.624Z,0.90
2017-07-03T10:40:34.112Z,0.50
2017-07-03T10:43:02.640Z,1.20
2017-07-03T10:45:31.166Z,0.80
2017-07-03T10:47:59.660Z,0.80
2017-07-03T10:50:28.163Z,0.80
2017-07-03T10:52:57.339Z,0.80
2017-07-03T10:55:25.873Z,1.10
2017-07-03T10:57:54.395Z,0.70
2017-07-03T11:00:23.248Z,0.97
2017-07-03T11:02:51.832Z,0.90
2017-07-03T11:05:20.345Z,0.80
2017-07-03T11:07:48.894Z,0.90
2017-07-03T11:10:17.423Z,0.70
2017-07-03T11:12:45.891Z,1.23
2017-07-03T11:15:14.368Z,1.40
2017-07-03T11:17:42.946Z,0.90
2017-07-03T11:20:11.550Z,0.80
2017-07-03T11:22:40.118Z,1.00
2017-07-03T11:25:08.618Z,0.90
2017-07-03T11:27:37.875Z,1.00
2017-07-03T11:30:06.397Z,1.50
2017-07-03T11:32:35.632Z,1.07
2017-07-03T11:35:04.213Z,0.93
2017-07-03T11:37:32.766Z,1.13
2017-07-03T11:40:01.463Z,1.30
2017-07-03T11:42:29.952Z,1.00
2017-07-03T11:44:58.455Z,0.83
2017-07-03T11:47:26.972Z,1.00
2017-07-03T11:49:55.562Z,1.10
2017-07-03T11:52:24.395Z,0.90
2017-07-03T11:54:52.931Z,0.87
2017-07-03T11:57:21.432Z,0.80
2017-07-03T11:59:49.968Z,0.80
2017-07-03T12:02:18.514Z,0.70
2017-07-03T12:04:47.045Z,0.80
2017-07-03T12:07:19.443Z,0.90
2017-07-03T12:09:57.375Z,0.90
2017-07-03T12:12:27.579Z,1.00
2017-07-03T12:14:56.111Z,0.90
2017-07-03T12:17:31.633Z,0.90
2017-07-03T12:20:00.227Z,0.90
2017-07-03T12:22:30.654Z,1.03
2017-07-03T12:24:59.234Z,1.20
2017-07-03T12:27:27.732Z,0.87
2017-07-03T12:29:57.623Z,0.93
2017-07-03T12:32:27.233Z,0.87
2017-07-03T12:34:56.121Z,1.07
2017-07-03T12:37:24.658Z,0.73
2017-07-03T12:39:53.938Z,0.80
2017-07-03T12:42:23.227Z,0.67
2017-07-03T12:44:51.727Z,0.83
2017-07-03T12:47:29.269Z,0.83
2017-07-03T12:49:57.804Z,1.10
2017-07-03T12:55:01.125Z,1.47
2017-07-03T12:57:29.752Z,0.90
2017-07-03T12:59:58.333Z,1.00
2017-07-03T13:02:26.844Z,1.30
2017-07-03T13:04:55.431Z,1.17
2017-07-03T13:07:23.953Z,1.00
2017-07-03T13:09:53.243Z,1.10
2017-07-03T13:12:21.761Z,0.90
2017-07-03T13:14:50.285Z,1.00
2017-07-03T13:17:18.816Z,1.10
2017-07-03T13:19:47.307Z,1.10
2017-07-03T13:22:15.974Z,1.20
2017-07-03T13:24:44.508Z,0.93
2017-07-03T13:27:13.140Z,1.43
2017-07-03T13:29:42.476Z,1.10
2017-07-03T13:32:11.029Z,1.13
2017-07-03T13:34:39.730Z,1.27
2017-07-03T13:37:08.284Z,1.40
2017-07-03T13:42:15.280Z,1.23
2017-07-03T13:44:43.764Z,1.10
2017-07-03T13:47:12.257Z,0.93
2017-07-03T13:49:40.835Z,1.30
2017-07-03T13:52:11.230Z,1.33
2017-07-03T13:54:39.715Z,1.00
2017-07-03T13:57:08.238Z,1.57
2017-07-03T13:59:44.967Z,1.27
2017-07-03T14:02:16.122Z,1.43
2017-07-03T14:04:45.483Z,1.67
2017-07-03T14:07:15.324Z,1.60
2017-07-03T14:09:43.865Z,1.83
2017-07-03T14:12:12.339Z,1.27
2017-07-03T14:14:41.691Z,1.60
2017-07-03T14:17:10.191Z,1.63
2017-07-03T14:19:38.954Z,1.40
2017-07-03T14:22:08.338Z,1.00
2017-07-03T14:24:37.811Z,1.60
2017-07-03T14:27:06.309Z,1.43
2017-07-03T14:29:35.489Z,1.43
2017-07-03T14:32:04.132Z,1.20
2017-07-03T14:34:32.627Z,1.63
2017-07-03T14:37:01.239Z,1.63
2017-07-03T14:39:31.174Z,1.43
2017-07-03T14:41:59.675Z,1.60
2017-07-03T14:44:28.623Z,1.70
2017-07-03T14:46:57.474Z,1.70
2017-07-03T14:49:26.059Z,1.77
2017-07-03T14:51:54.614Z,1.60
2017-07-03T14:54:23.166Z,2.00
2017-07-03T14:56:51.690Z,1.60
2017-07-03T14:59:20.169Z,1.43
2017-07-03T15:01:50.266Z,1.40
2017-07-03T15:04:18.771Z,1.70
2017-07-03T15:06:47.342Z,1.53
2017-07-03T15:09:16.132Z,1.33
2017-07-03T15:11:47.344Z,1.67
2017-07-03T15:14:16.096Z,1.63
2017-07-03T15:16:44.840Z,1.93
2017-07-03T15:19:14.342Z,1.43
2017-07-03T15:21:42.911Z,1.77
2017-07-03T15:28:32.854Z,1.60
2017-07-03T15:31:02.688Z,2.00
2017-07-03T15:33:39.308Z,1.50
2017-07-03T15:36:08.006Z,1.80
2017-07-03T15:38:37.575Z,1.63
2017-07-03T15:41:06.091Z,1.80
2017-07-03T15:43:34.709Z,1.00
2017-07-03T15:46:07.696Z,1.30
2017-07-03T15:48:36.380Z,1.23
2017-07-03T15:51:04.905Z,1.50
2017-07-03T15:53:34.232Z,1.53
2017-07-03T15:56:04.899Z,1.50
2017-07-03T15:58:35.627Z,1.80
2017-07-03T16:01:15.060Z,1.50
2017-07-03T16:03:44.091Z,1.80
2017-07-03T16:06:14.485Z,1.50
2017-07-03T16:08:43.144Z,2.07
2017-07-03T16:11:11.661Z,2.00
2017-07-03T16:13:40.225Z,1.20
2017-07-03T16:16:08.858Z,1.77
2017-07-03T16:18:37.347Z,2.03
2017-07-03T16:21:05.854Z,1.40
2017-07-03T16:23:34.403Z,1.40
2017-07-03T16:26:02.935Z,1.17
2017-07-03T16:28:31.472Z,1.53
2017-07-03T16:31:14.996Z,1.80
2017-07-03T16:33:43.629Z,1.40
2017-07-03T16:38:55.446Z,1.47
2017-07-03T16:41:24.323Z,1.90
2017-07-03T16:43:52.826Z,1.70
2017-07-03T16:46:22.730Z,1.60
2017-07-03T16:48:51.331Z,1.73
2017-07-03T16:51:21.522Z,1.43
2017-07-03T16:53:50.036Z,1.73
2017-07-03T16:56:18.590Z,1.63
2017-07-03T16:59:04.591Z,1.57
2017-07-03T17:01:33.270Z,1.90
2017-07-03T17:07:19.088Z,1.60
2017-07-03T17:12:35.057Z,1.53
2017-07-03T17:15:29.675Z,1.80
2017-07-03T17:17:58.228Z,1.90
2017-07-03T17:20:26.742Z,1.50
2017-07-03T17:23:03.470Z,1.67
2017-07-03T17:25:32.003Z,2.30
2017-07-03T17:28:00.545Z,1.80
2017-07-03T17:30:29.105Z,2.30
2017-07-03T17:32:57.655Z,1.93
2017-07-03T17:35:26.229Z,1.90
2017-07-03T17:37:55.133Z,2.23
2017-07-03T17:40:23.851Z,2.30
2017-07-03T17:42:52.370Z,2.17
2017-07-03T17:45:20.955Z,2.27
2017-07-03T17:47:49.485Z,1.67
2017-07-03T17:50:18.768Z,2.30
2017-07-03T17:52:47.333Z,2.00
2017-07-03T17:55:15.901Z,2.63
2017-07-03T17:57:44.389Z,2.07
2017-07-03T18:00:13.029Z,3.60
2017-07-03T18:02:41.492Z,2.40
2017-07-03T18:05:10.343Z,2.87
2017-07-03T18:07:38.931Z,2.30
2017-07-03T18:10:07.398Z,2.27
2017-07-03T18:12:35.933Z,3.03
2017-07-03T18:15:05.394Z,2.87
2017-07-03T18:17:35.087Z,2.67
2017-07-03T18:20:03.702Z,2.27
2017-07-03T18:22:32.272Z,2.53
2017-07-03T18:25:00.840Z,2.70
2017-07-03T18:27:44.929Z,2.77
2017-07-03T18:30:13.772Z,2.50
2017-07-03T18:32:44.851Z,3.03
2017-07-03T18:35:14.618Z,3.10
2017-07-03T18:37:43.077Z,2.73
2017-07-03T18:40:11.923Z,4.20
2017-07-03T18:42:40.465Z,2.87
2017-07-03T18:45:09.070Z,3.00
2017-07-03T18:47:37.645Z,3.00
2017-07-03T18:50:06.141Z,3.00
2017-07-03T18:52:34.643Z,3.20
2017-07-03T18:55:03.158Z,3.07
2017-07-03T18:57:31.603Z,3.57
2017-07-03T19:00:00.056Z,3.20
2017-07-03T19:02:29.592Z,3.37
2017-07-03T19:04:58.138Z,3.80
2017-07-03T19:07:26.648Z,3.40
2017-07-03T19:09:55.243Z,3.20
2017-07-03T19:12:24.090Z,3.63
2017-07-03T19:14:52.644Z,4.03
2017-07-03T19:17:21.362Z,3.23
2017-07-03T19:19:49.807Z,2.87
2017-07-03T19:22:18.321Z,3.00
2017-07-03T19:24:47.199Z,2.95
2017-07-03T19:27:15.697Z,3.50
2017-07-03T19:29:44.160Z,3.47
2017-07-03T19:32:12.696Z,3.07
2017-07-03T19:34:41.592Z,3.30
2017-07-03T19:37:10.147Z,3.57
2017-07-03T19:39:39.113Z,3.20
2017-07-03T19:42:07.601Z,3.30
2017-07-03T19:44:36.088Z,3.57
2017-07-03T19:47:06.344Z,3.03
2017-07-03T19:49:34.950Z,3.97
2017-07-03T19:52:03.434Z,4.20
2017-07-03T19:54:32.045Z,3.37
2017-07-03T19:57:00.535Z,4.13
2017-07-03T19:59:29.040Z,3.93
2017-07-03T20:01:57.718Z,3.77
2017-07-03T20:04:26.252Z,4.13
2017-07-03T20:06:54.821Z,4.83
2017-07-03T20:09:23.335Z,3.20
2017-07-03T20:11:51.931Z,4.50
2017-07-03T20:14:20.450Z,4.03
2017-07-03T20:16:50.339Z,3.80
2017-07-03T20:19:18.816Z,4.10
2017-07-03T20:21:47.385Z,3.80
2017-07-03T20:24:15.953Z,3.83
2017-07-03T20:26:44.550Z,4.57
2017-07-03T20:29:13.832Z,3.77
2017-07-03T20:31:42.436Z,3.97
2017-07-03T20:36:57.745Z,4.23
2017-07-03T20:39:28.163Z,4.33
2017-07-03T20:41:56.697Z,4.10
2017-07-03T20:44:26.888Z,4.67
2017-07-03T20:46:55.405Z,4.20
2017-07-03T20:49:24.991Z,4.47
2017-07-03T20:51:56.902Z,4.30
2017-07-03T20:55:04.392Z,4.97
2017-07-03T20:57:32.964Z,4.40
2017-07-03T21:00:01.779Z,5.62
2017-07-03T21:02:31.128Z,5.07
2017-07-03T21:05:02.631Z,4.62
2017-07-03T21:10:19.023Z,5.00
2017-07-03T21:13:05.326Z,4.45
2017-07-03T21:20:16.412Z,4.50
2017-07-03T21:22:46.259Z,4.57
2017-07-03T21:25:15.040Z,4.12
2017-07-03T21:27:43.845Z,4.00
2017-07-03T21:30:13.594Z,3.80
2017-07-03T21:32:42.442Z,5.10
2017-07-03T21:35:11.243Z,4.30
2017-07-03T21:37:40.100Z,5.15
2017-07-03T21:40:08.832Z,5.32
2017-07-03T21:42:38.051Z,5.00
2017-07-03T21:45:06.791Z,5.30
2017-07-03T21:47:35.591Z,5.12
2017-07-03T21:50:04.333Z,4.75
2017-07-03T21:52:33.222Z,4.68
2017-07-03T21:55:02.053Z,4.90
2017-07-03T21:57:30.912Z,5.82
2017-07-03T21:59:59.664Z,6.87
2017-07-03T22:02:28.505Z,4.03
2017-07-03T22:04:57.713Z,4.72
2017-07-03T22:07:26.529Z,5.00
2017-07-03T22:09:56.336Z,5.90
2017-07-03T22:12:25.199Z,4.97
2017-07-03T22:14:54.120Z,5.12
2017-07-03T22:17:22.866Z,4.97
2017-07-03T22:19:51.703Z,4.15
2017-07-03T22:22:20.593Z,5.40
2017-07-03T22:24:49.374Z,5.62
2017-07-03T22:27:18.183Z,5.00
2017-07-03T22:29:46.945Z,4.55
2017-07-03T22:32:15.728Z,4.78
2017-07-03T22:34:44.532Z,5.05
2017-07-03T22:37:13.374Z,5.03
2017-07-03T22:39:42.180Z,4.55
2017-07-03T22:42:11.022Z,5.30
2017-07-03T22:44:40.533Z,4.15
2017-07-03T22:47:10.032Z,4.10
2017-07-03T22:49:38.963Z,4.20
2017-07-03T22:52:07.754Z,4.10
2017-07-03T22:54:36.539Z,4.00
2017-07-03T22:57:05.626Z,4.87
2017-07-03T22:59:34.437Z,4.15
2017-07-03T23:02:03.263Z,4.68
2017-07-03T23:04:33.085Z,4.93
2017-07-03T23:07:01.852Z,4.93
2017-07-03T23:09:31.391Z,4.10
2017-07-03T23:12:00.183Z,5.15
2017-07-03T23:14:28.984Z,5.78
2017-07-03T23:16:57.793Z,5.68
2017-07-03T23:19:26.807Z,3.83
2017-07-03T23:21:56.181Z,5.20
2017-07-03T23:24:24.622Z,4.37
2017-07-03T23:26:53.502Z,4.62
2017-07-03T23:29:22.271Z,6.10
2017-07-03T23:31:51.279Z,4.97
2017-07-03T23:34:20.071Z,4.47
2017-07-03T23:36:48.890Z,5.15
2017-07-03T23:39:17.752Z,4.72
2017-07-03T23:41:46.605Z,4.60
2017-07-03T23:44:15.404Z,4.15
2017-07-03T23:46:44.190Z,5.62
2017-07-03T23:49:13.063Z,4.85
2017-07-03T23:51:41.859Z,5.25
2017-07-03T23:54:10.622Z,5.35
2017-07-03T23:56:39.489Z,4.85
2017-07-03T23:59:08.305Z,5.07
